LLUVIA / DATOS DE TEMPERATURA

Marzo 2005

Fecha / Hora Temperatura (*F) Dew Point (*F) Humedad Relativa (%)
03/01/05 00:04 49.67 47.04 90.6
03/01/05 00:34 49.67 47.28 91.4
03/01/05 01:04 48.25 45.98 91.8
03/01/05 01:34 47.53 45.16 91.4
03/01/05 02:04 48.25 42.8 81.3
03/01/05 02:34 46.82 43.34 87.6
03/01/05 03:04 46.82 42 83.2
03/01/05 03:34 46.1 41.86 85
03/01/05 04:04 46.1 41.7 84.5
03/01/05 04:34 46.1 39.96 79
03/01/05 05:04 45.38 38.94 78
03/01/05 05:34 45.38 39.56 79.9
03/01/05 06:04 45.38 38.78 77.5
03/01/05 06:34 44.65 40 83.6
03/01/05 07:04 43.92 39.98 85.9
03/01/05 07:34 43.92 40.1 86.3
03/01/05 08:04 43.19 39.88 88
03/01/05 08:34 43.19 39.12 85.4
03/01/05 09:04 46.1 40.54 80.8
03/01/05 09:34 50.38 41.74 72.1
03/01/05 10:04 58.73 41.22 52.1
03/01/05 10:34 62.17 42.26 48
03/01/05 11:04 64.91 37.92 36.8
03/01/05 11:34 65.59 36.36 33.8
03/01/05 12:04 65.59 33.7 30.4
03/01/05 12:34 67.65 33.86 28.5
03/01/05 13:04 69.71 34.36 27.1
03/01/05 13:34 71.08 35.16 26.7
03/01/05 14:04 72.46 34.98 25.3
03/01/05 14:34 72.46 35.38 25.7
03/01/05 15:04 73.84 34.72 23.9
03/01/05 15:34 74.53 35.3 23.9
03/01/05 16:04 73.84 34.72 23.9
03/01/05 16:34 72.46 33.56 23.9
03/01/05 17:04 70.39 42.06 35.8
03/01/05 17:34 69.02 43.26 39.3
03/01/05 18:04 67.65 44.62 43.4
03/01/05 18:34 64.91 45.58 49.5
03/01/05 19:04 64.91 42.44 43.9
03/01/05 19:34 62.85 43.16 48.5
03/01/05 20:04 60.11 43.52 54.2
03/01/05 20:34 58.04 43.32 57.9
03/01/05 21:04 56.66 44.22 63
03/01/05 21:34 54.58 44.86 69.6
03/01/05 22:04 53.19 47.46 80.8
03/01/05 22:34 53.19 49.74 88
03/01/05 23:04 52.49 49.44 89.3
03/01/05 23:34 51.08 48.66 91.4
03/02/05 00:04 49.67 48.08 94.2
03/02/05 00:34 48.96 47.02 93
03/02/05 01:04 48.25 46.78 94.6
03/02/05 01:34 48.25 46.96 95.3
03/02/05 02:04 47.53 46.48 96.1
03/02/05 02:34 46.1 45.54 97.9
03/02/05 03:04 45.38 45.12 99
03/02/05 03:34 44.65 44.66 100
03/02/05 04:04 43.92 43.92 101.3
03/02/05 04:34 43.19 43.2 101.6
03/02/05 05:04 43.19 43.2 102.2
03/02/05 05:34 42.46 42.46 101.9
03/02/05 06:04 44.65 44.66 102.2
03/02/05 06:34 44.65 44.66 101.9
03/02/05 07:04 43.92 43.92 101.9
03/02/05 07:34 44.65 44.66 100.6
03/02/05 08:04 44.65 44.66 100.3
03/02/05 08:34 43.19 43.08 99.6
03/02/05 09:04 44.65 44.66 101
03/02/05 09:34 48.25 45.38 89.7
03/02/05 10:04 52.49 46.3 79.4
03/02/05 10:34 56.66 46.28 68.1
03/02/05 11:04 57.35 45.1 63.5
03/02/05 11:34 59.42 43.64 55.8
03/02/05 12:04 60.8 42.38 50.6
03/02/05 12:34 62.85 42.62 47.5
03/02/05 13:04 64.22 42.4 44.9
03/02/05 13:34 66.28 44.56 45.4
03/02/05 14:04 66.96 44 43.4
03/02/05 14:34 68.33 42.32 38.8
03/02/05 15:04 69.71 39.58 33.3
03/02/05 15:34 70.39 38.68 31.4
03/02/05 16:04 71.77 41.38 33.3
03/02/05 16:34 72.46 40.06 30.9
03/02/05 17:04 71.08 41.54 34.3
03/02/05 17:34 70.39 40.94 34.3
03/02/05 18:04 69.71 42.16 36.8
03/02/05 18:34 67.65 42.36 39.8
03/02/05 19:04 65.59 43.36 44.4
03/02/05 19:34 62.17 46.44 56.3
03/02/05 20:04 59.42 48.52 67.1
03/02/05 20:34 56.66 49.54 77
03/02/05 21:04 55.28 50.28 83.2
03/02/05 21:34 53.89 49.76 85.9
03/02/05 22:04 52.49 48.8 87.2
03/02/05 22:34 52.49 48.64 86.7
03/02/05 23:04 51.79 48.24 87.6
03/02/05 23:34 51.08 47.8 88.5
03/03/05 00:04 51.08 48.04 89.3
03/03/05 00:34 49.67 46.92 90.2
03/03/05 01:04 47.53 46.06 94.6
03/03/05 01:34 46.82 45.96 96.8
03/03/05 02:04 47.53 46.9 97.6
03/03/05 02:34 46.1 45.64 98.3
03/03/05 03:04 46.1 45.64 98.3
03/03/05 03:34 44.65 44.28 98.6
03/03/05 04:04 45.38 45.38 100.6
03/03/05 04:34 43.92 43.92 101.3
03/03/05 05:04 43.92 43.92 101.6
03/03/05 05:34 43.92 43.92 101.9
03/03/05 06:04 43.19 43.2 101.9
03/03/05 06:34 43.19 43.2 102.2
03/03/05 07:04 43.19 43.2 102.2
03/03/05 07:34 43.19 43.2 102.5
03/03/05 08:04 43.92 43.92 102.2
03/03/05 08:34 43.92 43.92 102.2
03/03/05 09:04 46.82 46.82 102.2
03/03/05 09:34 51.08 51.08 100
03/03/05 10:04 56.66 50.24 79
03/03/05 10:34 58.73 49.62 71.7
03/03/05 11:04 60.8 46.8 59.9
03/03/05 11:34 61.48 45.8 56.3
03/03/05 12:04 64.91 44.78 48
03/03/05 12:34 64.91 43.02 44.9
03/03/05 13:04 64.91 42.74 44.4
03/03/05 13:34 66.28 39.12 36.8
03/03/05 14:04 66.96 41.1 38.8
03/03/05 14:34 66.96 40.76 38.3
03/03/05 15:04 69.02 39.74 34.3
03/03/05 15:34 69.71 39.58 33.3
03/03/05 16:04 71.77 40.28 31.9
03/03/05 16:34 71.77 39.88 31.4
03/03/05 17:04 71.08 40.08 32.4
03/03/05 17:34 71.08 37.26 29
03/03/05 18:04 69.71 36.08 29
03/03/05 18:34 68.33 39.14 34.3
03/03/05 19:04 65.59 40.52 39.8
03/03/05 19:34 61.48 44.06 52.7
03/03/05 20:04 59.42 46.2 61.5
03/03/05 20:34 57.35 46.34 66.6
03/03/05 21:04 55.97 48.56 76.1
03/03/05 21:34 54.58 48.68 80.4
03/03/05 22:04 53.89 49.32 84.5
03/03/05 22:34 53.19 49.74 88
03/03/05 23:04 53.19 49.34 86.7
03/03/05 23:34 51.79 48.74 89.3
03/04/05 00:04 51.79 49.02 90.2
03/04/05 00:34 49.67 47.74 93
03/04/05 01:04 49.67 44.64 82.7
03/04/05 01:34 49.67 42.64 76.6
03/04/05 02:04 48.25 43.08 82.2
03/04/05 02:34 48.25 44.08 85.4
03/04/05 03:04 48.25 43.52 83.6
03/04/05 03:34 47.53 43.54 85.9
03/04/05 04:04 48.96 44.1 83.2
03/04/05 04:34 48.96 44.1 83.2
03/04/05 05:04 48.96 43.2 80.4
03/04/05 05:34 48.25 43.24 82.7
03/04/05 06:04 49.67 42.46 76.1
03/04/05 06:34 47.53 42.38 82.2
03/04/05 07:04 46.82 40.66 79
03/04/05 07:34 46.82 39.54 75.6
03/04/05 08:04 46.1 39.96 79
03/04/05 08:34 47.53 40.4 76.1
03/04/05 09:04 51.08 41.52 69.6
03/04/05 09:34 53.19 43.52 69.6
03/04/05 10:04 55.28 44.96 68.1
03/04/05 10:34 56.66 45.88 67.1
03/04/05 11:04 58.73 45.98 62.5
03/04/05 11:34 62.17 45.44 54.2
03/04/05 12:04 64.22 45.54 50.6
03/04/05 12:34 66.28 45.14 46.4
03/04/05 13:04 66.28 44.56 45.4
03/04/05 13:34 67.65 40.34 36.8
03/04/05 14:04 68.33 39.14 34.3
03/04/05 14:34 69.02 35.48 29
03/04/05 15:04 70.39 30.88 23
03/04/05 15:34 70.39 33.24 25.3
03/04/05 16:04 69.71 41.8 36.3
03/04/05 16:34 69.71 34.36 27.1
03/04/05 17:04 69.02 36.34 30
03/04/05 17:34 67.65 36.3 31.4
03/04/05 18:04 66.28 39.46 37.3
03/04/05 18:34 63.54 41.2 43.9
03/04/05 19:04 60.8 42.12 50.1
03/04/05 19:34 58.04 42.14 55.3
03/04/05 20:04 55.28 44.96 68.1
03/04/05 20:34 53.89 46.72 76.6
03/04/05 21:04 52.49 46.78 80.8
03/04/05 21:34 51.79 46.42 81.8
03/04/05 22:04 50.38 45.48 83.2
03/04/05 22:34 48.96 45.32 87.2
03/04/05 23:04 48.25 45.14 88.9
03/04/05 23:34 49.67 45.36 85
03/05/05 00:04 48.96 45.32 87.2
03/05/05 00:34 49.67 45.36 85
03/05/05 01:04 49.67 45.36 85
03/05/05 01:34 49.67 45.36 85
03/05/05 02:04 48.25 44.36 86.3
03/05/05 02:34 48.25 44.62 87.2
03/05/05 03:04 46.82 43.96 89.7
03/05/05 03:34 46.82 44.22 90.6
03/05/05 04:04 46.1 44.74 95
03/05/05 04:34 46.82 45.66 95.7
03/05/05 05:04 47.53 46.18 95
03/05/05 05:34 46.82 45.96 96.8
03/05/05 06:04 46.1 45.54 97.9
03/05/05 06:34 46.1 45.72 98.6
03/05/05 07:04 46.82 46.26 97.9
03/05/05 07:34 47.53 46.6 96.5
03/05/05 08:04 48.25 46.88 95
03/05/05 08:34 48.25 47.98 99
03/05/05 09:04 48.96 48.7 99
03/05/05 09:34 50.38 48.44 93
03/05/05 10:04 53.19 45.16 74.1
03/05/05 10:34 51.08 46.86 85.4
03/05/05 11:04 54.58 45.28 70.7
03/05/05 11:34 53.19 40.94 63
03/05/05 12:04 52.49 45.66 77.5
03/05/05 12:34 55.97 38.68 52.1
03/05/05 13:04 55.97 38.42 51.6
03/05/05 13:34 55.97 35.74 46.4
03/05/05 14:04 59.42 34.36 38.8
03/05/05 14:34 58.04 36.8 44.9
03/05/05 15:04 57.35 36.72 45.9
03/05/05 15:34 60.11 35.62 39.8
03/05/05 16:04 58.04 38.76 48.5
03/05/05 16:34 59.42 39.48 47.5
03/05/05 17:04 56.66 41.76 57.3
03/05/05 17:34 54.58 41.42 61
03/05/05 18:04 55.97 39.92 54.7
03/05/05 18:34 53.89 42.06 64.1
03/05/05 19:04 51.08 44.14 77
03/05/05 19:34 51.08 44.48 78
03/05/05 20:04 50.38 44.88 81.3
03/05/05 20:34 49.67 45.64 85.9
03/05/05 21:04 49.67 45.88 86.7
03/05/05 21:34 49.67 45.76 86.3
03/05/05 22:04 48.96 45.44 87.6
03/05/05 22:34 48.25 45.52 90.2
03/05/05 23:04 48.25 45.64 90.6
03/05/05 23:34 48.25 46.2 92.6
03/06/05 00:04 48.25 46.2 92.6
03/06/05 00:34 48.25 46.32 93
03/06/05 01:04 48.25 45.98 91.8
03/06/05 01:34 47.53 45.28 91.8
03/06/05 02:04 47.53 45.62 93
03/06/05 02:34 46.82 44.9 93
03/06/05 03:04 46.82 45.36 94.6
03/06/05 03:34 46.82 45.36 94.6
03/06/05 04:04 46.82 45.36 94.6
03/06/05 04:34 46.1 44.64 94.6
03/06/05 05:04 46.82 45.24 94.2
03/06/05 05:34 46.82 45.12 93.8
03/06/05 06:04 46.82 45.02 93.4
03/06/05 06:34 44.65 43.6 96.1
03/06/05 07:04 44.65 43.9 97.2
03/06/05 07:34 43.92 43.56 98.6
03/06/05 08:04 43.92 43.92 100.3
03/06/05 08:34 44.65 44.66 100.3
03/06/05 09:04 44.65 44.66 100
03/06/05 09:34 48.25 46.44 93.4
03/06/05 10:04 55.97 45.42 67.6
03/06/05 10:34 58.04 42.82 56.8
03/06/05 11:04 60.11 41.18 49.5
03/06/05 11:34 60.8 36.54 40.3
03/06/05 12:04 62.85 36.76 37.8
03/06/05 12:34 63.54 35.64 35.3
03/06/05 13:04 62.85 37.1 38.3
03/06/05 13:34 62.17 35.82 37.3
03/06/05 14:04 64.91 36.5 34.8
03/06/05 14:34 60.8 42.12 50.1
03/06/05 15:04 62.85 36.44 37.3
03/06/05 15:34 66.28 42.1 41.3
03/06/05 16:04 60.11 44.76 56.8
03/06/05 16:34 61.48 41.64 48
03/06/05 17:04 66.28 42.1 41.3
03/06/05 17:34 58.73 47.66 66.6
03/06/05 18:04 58.04 50.22 75.1
03/06/05 18:34 55.28 50.56 84.1
03/06/05 19:04 53.89 49.9 86.3
03/06/05 19:34 53.19 50.12 89.3
03/06/05 20:04 52.49 49.82 90.6
03/06/05 20:34 52.49 50.18 91.8
03/06/05 21:04 51.79 49.24 91
03/06/05 21:34 51.08 48.66 91.4
03/06/05 22:04 51.79 49.24 91
03/06/05 22:34 51.79 49.6 92.2
03/06/05 23:04 50.38 48.08 91.8
03/06/05 23:34 48.96 47.36 94.2
03/07/05 00:04 49.67 47.5 92.2
03/07/05 00:34 50.38 48.32 92.6
03/07/05 01:04 50.38 48.32 92.6
03/07/05 01:34 50.38 49.08 95.3
03/07/05 02:04 51.08 48.32 90.2
03/07/05 02:34 50.38 48.88 94.6
03/07/05 03:04 50.38 48.54 93.4
03/07/05 03:34 50.38 48.78 94.2
03/07/05 04:04 50.38 48.54 93.4
03/07/05 04:34 49.67 48.08 94.2
03/07/05 05:04 48.96 47.9 96.1
03/07/05 05:34 47.53 46.9 97.6
03/07/05 06:04 47.53 47.08 98.3
03/07/05 06:34 46.1 45.72 98.6
03/07/05 07:04 45.38 45.38 100.6
03/07/05 07:34 46.1 46.1 101
03/07/05 08:04 46.82 46.36 98.3
03/07/05 08:34 47.53 45.96 94.2
03/07/05 09:04 50.38 46.84 87.6
03/07/05 09:34 55.28 45.34 69.1
03/07/05 10:04 60.11 45.94 59.4
03/07/05 10:34 60.8 43.92 53.7
03/07/05 11:04 62.17 42.26 48
03/07/05 11:34 63.54 39.94 41.8
03/07/05 12:04 64.22 37.98 37.8
03/07/05 12:34 64.22 35.16 33.8
03/07/05 13:04 66.28 34.7 30.9
03/07/05 13:34 66.96 35.3 30.9
03/07/05 14:04 66.96 34.14 29.5
03/07/05 14:34 67.65 31.78 26.2
03/07/05 15:04 67.65 32.24 26.7
03/07/05 15:34 69.02 31.18 24.4
03/07/05 16:04 69.71 28.88 21.7
03/07/05 16:34 70.39 29.9 22.1
03/07/05 17:04 70.39 26.86 19.5
03/07/05 17:34 69.71 28.88 21.7
03/07/05 18:04 68.33 27.74 21.7
03/07/05 18:34 66.96 30.72 25.7
03/07/05 19:04 64.91 28.6 25.3
03/07/05 19:34 61.48 31.32 31.9
03/07/05 20:04 59.42 32.02 35.3
03/07/05 20:34 58.73 32.44 36.8
03/07/05 21:04 57.35 33.16 39.8
03/07/05 21:34 55.28 32.8 42.3
03/07/05 22:04 54.58 33.38 44.4
03/07/05 22:34 51.79 35.8 54.2
03/07/05 23:04 51.79 36.52 55.8
03/07/05 23:34 51.08 37.46 59.4
03/08/05 00:04 48.96 38.36 66.6
03/08/05 00:34 47.53 38.3 70.1
03/08/05 01:04 46.82 39.36 75.1
03/08/05 01:34 46.1 39 76.1
03/08/05 02:04 46.82 39.36 75.1
03/08/05 02:34 44.65 39.44 81.8
03/08/05 03:04 45.38 39.1 78.5
03/08/05 03:34 46.1 37.8 72.6
03/08/05 04:04 45.38 38.6 77
03/08/05 04:34 43.19 38.46 83.2
03/08/05 05:04 43.92 39.16 83.2
03/08/05 05:34 43.19 38.72 84.1
03/08/05 06:04 44.65 38.84 79.9
03/08/05 06:34 43.19 39.5 86.7
03/08/05 07:04 42.46 39.9 90.6
03/08/05 07:34 43.19 40.38 89.7
03/08/05 08:04 44.65 41.32 88
03/08/05 08:34 43.92 41.1 89.7
03/08/05 09:04 48.25 42.64 80.8
03/08/05 09:34 52.49 43.44 71.2
03/08/05 10:04 62.85 44.78 51.6
03/08/05 10:34 65.59 40.84 40.3
03/08/05 11:04 69.02 39.36 33.8
03/08/05 11:34 69.71 38.88 32.4
03/08/05 12:04 71.77 38.28 29.5
03/08/05 12:34 72.46 37.18 27.6
03/08/05 13:04 73.84 34.3 23.5
03/08/05 13:34 75.22 32.42 20.8
03/08/05 14:04 76.62 30.92 18.7
03/08/05 14:34 78.71 28.5 15.8
03/08/05 15:04 78.71 22.68 12.4
03/08/05 15:34 79.41 24.54 13.1
03/08/05 16:04 79.41 39.94 24.4
03/08/05 16:34 76.62 40.74 27.6
03/08/05 17:04 78.01 40.08 25.7
03/08/05 17:34 76.62 40.26 27.1
03/08/05 18:04 76.62 40.74 27.6
03/08/05 18:34 74.53 40.22 29
03/08/05 19:04 72.46 41.68 32.9
03/08/05 19:34 68.33 46.42 45.4
03/08/05 20:04 64.91 47.24 52.7
03/08/05 20:34 62.17 48.3 60.4
03/08/05 21:04 60.11 48.76 66.1
03/08/05 21:34 58.04 48.96 71.7
03/08/05 22:04 57.35 49.72 75.6
03/08/05 22:34 55.97 49.4 78.5
03/08/05 23:04 55.28 49.36 80.4
03/08/05 23:34 54.58 49.14 81.8
03/09/05 00:04 53.89 48.46 81.8
03/09/05 00:34 53.19 47.9 82.2
03/09/05 01:04 52.49 47.84 84.1
03/09/05 01:34 50.38 47.12 88.5
03/09/05 02:04 51.08 48.04 89.3
03/09/05 02:34 51.08 48.32 90.2
03/09/05 03:04 49.67 47.62 92.6
03/09/05 03:34 49.67 47.74 93
03/09/05 04:04 49.67 48.18 94.6
03/09/05 04:34 48.25 47.2 96.1
03/09/05 05:04 47.53 46.78 97.2
03/09/05 05:34 48.25 47.5 97.2
03/09/05 06:04 47.53 46.9 97.6
03/09/05 06:34 48.25 47.3 96.5
03/09/05 07:04 46.82 46.06 97.2
03/09/05 07:34 46.1 45.46 97.6
03/09/05 08:04 46.1 45.24 96.8
03/09/05 08:34 46.82 45.02 93.4
03/09/05 09:04 49.67 46.66 89.3
03/09/05 09:34 55.28 49.66 81.3
03/09/05 10:04 71.08 28.04 20
03/09/05 10:34 73.84 28.66 18.7
03/09/05 11:04 75.22 28.18 17.5
03/09/05 11:34 75.92 26.26 15.8
03/09/05 12:04 77.31 24.98 14.3
03/09/05 12:34 78.71 24.7 13.5
03/09/05 13:04 79.41 22.46 12
03/09/05 13:34 80.12 21.58 11.3
03/09/05 14:04 81.53 22.66 11.3
03/09/05 14:34 81.53 21.82 10.9
03/09/05 15:04 81.53 22.66 11.3
03/09/05 15:34 82.24 20.8 10.2
03/09/05 16:04 82.95 17.9 8.8
03/09/05 16:34 82.95 17.9 8.8
03/09/05 17:04 82.95 18.66 9.1
03/09/05 17:34 82.95 17.9 8.8
03/09/05 18:04 82.24 16.56 8.5
03/09/05 18:34 80.82 16.3 8.8
03/09/05 19:04 78.01 17.58 10.2
03/09/05 19:34 74.53 22.78 14.3
03/09/05 20:04 72.46 23.5 15.8
03/09/05 20:34 71.77 21.72 15
03/09/05 21:04 69.71 27.38 20.4
03/09/05 21:34 66.96 28 23
03/09/05 22:04 64.22 28.86 26.2
03/09/05 22:34 62.85 32.9 32.4
03/09/05 23:04 62.17 33.72 34.3
03/09/05 23:34 60.8 34.6 37.3
03/10/05 00:04 66.96 28.94 23.9
03/10/05 00:34 62.17 32.68 32.9
03/10/05 01:04 58.73 34.38 39.8
03/10/05 01:34 58.04 35 41.8
03/10/05 02:04 55.97 37.68 50.1
03/10/05 02:34 60.8 30.34 31.4
03/10/05 03:04 62.17 30.74 30.4
03/10/05 03:34 62.85 31.32 30.4
03/10/05 04:04 58.73 33.76 38.8
03/10/05 04:34 55.28 37.04 50.1
03/10/05 05:04 55.97 35.74 46.4
03/10/05 05:34 52.49 37.64 56.8
03/10/05 06:04 51.08 37.88 60.4
03/10/05 06:34 53.19 35.86 51.6
03/10/05 07:04 51.79 36.76 56.3
03/10/05 07:34 52.49 36.44 54.2
03/10/05 08:04 52.49 37.4 56.3
03/10/05 08:34 53.89 36 50.6
03/10/05 09:04 57.35 35.32 43.4
03/10/05 09:34 66.96 32.92 28.1
03/10/05 10:04 73.15 30.7 20.8
03/10/05 10:34 74.53 26.92 17
03/10/05 11:04 75.92 24.38 14.6
03/10/05 11:34 78.01 27.94 15.8
03/10/05 12:04 79.41 24.54 13.1
03/10/05 12:34 80.82 22.74 11.6
03/10/05 13:04 82.95 25.2 12
03/10/05 13:34 83.67 21.88 10.2
03/10/05 14:04 84.38 21.48 9.8
03/10/05 14:34 83.67 20.94 9.8
03/10/05 15:04 85.1 20.28 9.1
03/10/05 15:34 88.01 20.84 8.5
03/10/05 16:04 88.01 20.84 8.5
03/10/05 16:34 90.22 20.46 7.8
03/10/05 17:04 85.1 36.74 17.9
03/10/05 17:34 82.24 38.2 20.8
03/10/05 18:04 82.24 37.22 20
03/10/05 18:34 80.12 38.56 22.6
03/10/05 19:04 78.01 36.24 22.1
03/10/05 19:34 73.84 39.62 29
03/10/05 20:04 70.39 42.06 35.8
03/10/05 20:34 68.33 43.94 41.3
03/10/05 21:04 65.59 45.94 49
03/10/05 21:34 63.54 47.24 55.3
03/10/05 22:04 62.17 47.42 58.4
03/10/05 22:34 61.48 47.92 61
03/10/05 23:04 60.8 47.92 62.5
03/10/05 23:34 60.11 47.94 64.1
03/11/05 00:04 58.73 46.86 64.6
03/11/05 00:34 56.66 47.04 70.1
03/11/05 01:04 55.97 46.8 71.2
03/11/05 01:34 55.97 45.42 67.6
03/11/05 02:04 54.58 45.64 71.7
03/11/05 02:34 53.19 44.44 72.1
03/11/05 03:04 52.49 41.9 67.1
03/11/05 03:34 53.89 40.08 59.4
03/11/05 04:04 54.58 40.52 58.9
03/11/05 04:34 52.49 41.12 65.1
03/11/05 05:04 61.48 33.48 34.8
03/11/05 05:34 63.54 30.34 28.5
03/11/05 06:04 63.54 29.54 27.6
03/11/05 06:34 60.8 34.94 37.8
03/11/05 07:04 55.28 37.04 50.1
03/11/05 07:34 54.58 37.68 52.7
03/11/05 08:04 51.79 39.62 63
03/11/05 08:34 51.79 40.26 64.6
03/11/05 09:04 55.28 39.78 55.8
03/11/05 09:34 61.48 43.76 52.1
03/11/05 10:04 69.71 42.86 37.8
03/11/05 10:34 73.15 38.22 28.1
03/11/05 11:04 75.92 36.04 23.5
03/11/05 11:34 78.01 34.72 20.8
03/11/05 12:04 80.82 31.4 16.6
03/11/05 12:34 82.24 30.68 15.4
03/11/05 13:04 82.95 28.74 13.9
03/11/05 13:34 83.67 25.74 12
03/11/05 14:04 84.38 27.66 12.7
03/11/05 14:34 85.1 28.22 12.7
03/11/05 15:04 85.83 25.96 11.3
03/11/05 15:34 85.83 26.6 11.6
03/11/05 16:04 87.28 26.2 10.9
03/11/05 16:34 87.28 23.66 9.8
03/11/05 17:04 88.01 23.48 9.5
03/11/05 17:34 86.55 24.76 10.5
03/11/05 18:04 87.28 24.62 10.2
03/11/05 18:34 83.67 38.88 20.4
03/11/05 19:04 78.71 39.34 24.4
03/11/05 19:34 74.53 43.48 32.9
03/11/05 20:04 70.39 48 44.9
03/11/05 20:34 68.33 50.66 53.2
03/11/05 21:04 66.96 50.14 54.7
03/11/05 21:34 65.59 50.1 57.3
03/11/05 22:04 63.54 50.94 63.5
03/11/05 22:34 61.48 50.68 67.6
03/11/05 23:04 59.42 50.1 71.2
03/11/05 23:34 59.42 50.82 73.1
03/12/05 00:04 58.73 49.62 71.7
03/12/05 00:34 58.04 48.36 70.1
03/12/05 01:04 58.04 48.78 71.2
03/12/05 01:34 56.66 48.52 74.1
03/12/05 02:04 54.58 48.34 79.4
03/12/05 02:34 53.89 48.6 82.2
03/12/05 03:04 54.58 48.34 79.4
03/12/05 03:34 54.58 47.88 78
03/12/05 04:04 53.19 47.78 81.8
03/12/05 04:34 52.49 47.38 82.7
03/12/05 05:04 51.79 47.56 85.4
03/12/05 05:34 52.49 47.68 83.6
03/12/05 06:04 51.08 46.86 85.4
03/12/05 06:34 50.38 47.24 88.9
03/12/05 07:04 51.08 47.14 86.3
03/12/05 07:34 50.38 46.84 87.6
03/12/05 08:04 50.38 46.84 87.6
03/12/05 08:34 50.38 45.9 84.5
03/12/05 09:04 53.19 46.52 78
03/12/05 09:34 59.42 46.2 61.5
03/12/05 10:04 68.33 47 46.4
03/12/05 10:34 71.77 42.9 35.3
03/12/05 11:04 73.84 44.72 35.3
03/12/05 11:34 73.84 37.04 26.2
03/12/05 12:04 75.92 36.48 23.9
03/12/05 12:34 76.62 37.06 23.9
03/12/05 13:04 78.71 32.1 18.3
03/12/05 13:34 80.82 31.4 16.6
03/12/05 14:04 80.82 36.04 20
03/12/05 14:34 81.53 31.96 16.6
03/12/05 15:04 82.24 31.32 15.8
03/12/05 15:34 82.24 29.38 14.6
03/12/05 16:04 82.24 33.86 17.5
03/12/05 16:34 81.53 34.4 18.3
03/12/05 17:04 79.41 37.98 22.6
03/12/05 17:34 78.71 40.68 25.7
03/12/05 18:04 76.62 41.56 28.5
03/12/05 18:34 74.53 38.48 27.1
03/12/05 19:04 71.77 41.08 32.9
03/12/05 19:34 66.96 46.1 47
03/12/05 20:04 63.54 48.92 58.9
03/12/05 20:34 60.8 50.22 68.1
03/12/05 21:04 58.73 51.06 75.6
03/12/05 21:34 57.35 51.68 81.3
03/12/05 22:04 55.97 51.66 85.4
03/12/05 22:34 53.89 51.32 91
03/12/05 23:04 52.49 51.18 95.3
03/12/05 23:34 51.08 50.2 96.8
03/13/05 00:04 50.38 50.1 99
03/13/05 00:34 49.67 49.68 100.3
03/13/05 01:04 51.08 51.08 100.6
03/13/05 01:34 51.08 50.9 99.3
03/13/05 02:04 51.08 50.32 97.2
03/13/05 02:34 51.08 50.32 97.2
03/13/05 03:04 50.38 49.42 96.5
03/13/05 03:34 50.38 49.32 96.1
03/13/05 04:04 50.38 49.08 95.3
03/13/05 04:34 50.38 49 95
03/13/05 05:04 49.67 48.3 95
03/13/05 05:34 49.67 48.3 95
03/13/05 06:04 49.67 48.18 94.6
03/13/05 06:34 48.96 47.48 94.6
03/13/05 07:04 48.25 47.08 95.7
03/13/05 07:34 46.82 46.06 97.2
03/13/05 08:04 45.38 45 98.6
03/13/05 08:34 46.1 46.1 100.3
03/13/05 09:04 46.82 46.82 100.3
03/13/05 09:34 53.19 50.76 91.4
03/13/05 10:04 56.66 49.9 78
03/13/05 10:34 59.42 48.72 67.6
03/13/05 11:04 60.8 46.12 58.4
03/13/05 11:34 62.85 45.84 53.7
03/13/05 12:04 65.59 43.36 44.4
03/13/05 12:34 67.65 39.98 36.3
03/13/05 13:04 70.39 39.88 32.9
03/13/05 13:34 71.77 39.46 30.9
03/13/05 14:04 71.77 37.04 28.1
03/13/05 14:34 72.46 37.64 28.1
03/13/05 15:04 71.77 41.38 33.3
03/13/05 15:34 71.08 37.26 29
03/13/05 16:04 71.77 32.04 23
03/13/05 16:34 71.77 34.8 25.7
03/13/05 17:04 71.77 37.84 29
03/13/05 17:34 71.08 37.68 29.5
03/13/05 18:04 69.02 36.34 30
03/13/05 18:34 68.33 33.66 27.6
03/13/05 19:04 65.59 36.74 34.3
03/13/05 19:34 60.8 50.62 69.1
03/13/05 20:04 58.04 50.04 74.6
03/13/05 20:34 56.66 50.36 79.4
03/13/05 21:04 55.28 50.12 82.7
03/13/05 21:34 53.89 49.62 85.4
03/13/05 22:04 52.49 49.04 88
03/13/05 22:34 51.79 49.24 91
03/13/05 23:04 50.38 48.32 92.6
03/13/05 23:34 49.67 48.08 94.2
03/14/05 00:04 48.96 47.9 96.1
03/14/05 00:34 48.25 47.8 98.3
03/14/05 01:04 48.96 48.02 96.5
03/14/05 01:34 48.96 47.36 94.2
03/14/05 02:04 48.96 47.14 93.4
03/14/05 02:34 48.96 46.8 92.2
03/14/05 03:04 48.25 46.2 92.6
03/14/05 03:34 48.25 46.1 92.2
03/14/05 04:04 48.25 46.1 92.2
03/14/05 04:34 48.96 46.8 92.2
03/14/05 05:04 48.25 45.74 91
03/14/05 05:34 48.25 45.64 90.6
03/14/05 06:04 47.53 45.04 91
03/14/05 06:34 47.53 45.28 91.8
03/14/05 07:04 47.53 45.16 91.4
03/14/05 07:34 47.53 44.92 90.6
03/14/05 08:04 47.53 43.92 87.2
03/14/05 08:34 47.53 44.04 87.6
03/14/05 09:04 48.25 43.8 84.5
03/14/05 09:34 49.67 44.48 82.2
03/14/05 10:04 52.49 44.66 74.6
03/14/05 10:34 53.89 45.3 72.6
03/14/05 11:04 55.28 43.98 65.6
03/14/05 11:34 57.35 43.34 59.4
03/14/05 12:04 60.11 42.8 52.7
03/14/05 12:34 63.54 41.2 43.9
03/14/05 13:04 64.22 41.22 42.9
03/14/05 13:34 66.28 40.48 38.8
03/14/05 14:04 66.96 42.7 41.3
03/14/05 14:34 68.33 40.94 36.8
03/14/05 15:04 71.08 39.28 31.4
03/14/05 15:34 71.77 37.4 28.5
03/14/05 16:04 74.53 37.62 26.2
03/14/05 16:34 74.53 36.24 24.8
03/14/05 17:04 73.15 35.58 25.3
03/14/05 17:34 74.53 34.88 23.5
03/14/05 18:04 75.92 39.28 26.7
03/14/05 18:34 72.46 44.24 36.3
03/14/05 19:04 66.28 44.56 45.4
03/14/05 19:34 63.54 47.96 56.8
03/14/05 20:04 60.8 48.8 64.6
03/14/05 20:34 58.04 48.18 69.6
03/14/05 21:04 56.66 48.52 74.1
03/14/05 21:34 55.28 49.02 79.4
03/14/05 22:04 54.58 49.28 82.2
03/14/05 22:34 53.19 48.64 84.5
03/14/05 23:04 53.89 48.92 83.2
03/14/05 23:34 53.19 48.08 82.7
03/15/05 00:04 58.73 13.58 16.6
03/15/05 00:34 59.42 9.5 13.5
03/15/05 01:04 58.73 5.62 11.6
03/15/05 01:34 58.04 2.3 10.2
03/15/05 02:04 58.04 1.46 9.8
03/15/05 02:34 58.04 1.46 9.8
03/15/05 03:04 57.35 -5.52 7.2
03/15/05 03:34 57.35 -9.58 5.9
03/15/05 04:04 56.66 -9.08 6.2
03/15/05 04:34 56.66 -9.08 6.2
03/15/05 05:04 55.97 -7.42 6.9
03/15/05 05:34 55.97 -4.9 7.8
03/15/05 06:04 55.28 -5.42 7.8
03/15/05 06:34 54.58 -2.76 9.1
03/15/05 07:04 54.58 -1.2 9.8
03/15/05 07:34 53.89 -3.28 9.1
03/15/05 08:04 53.89 -3.28 9.1
03/15/05 08:34 53.89 -2.38 9.5
03/15/05 09:04 55.28 1.58 10.9
03/15/05 09:34 56.66 5.96 12.7
03/15/05 10:04 58.04 5.08 11.6
03/15/05 10:34 58.04 8.4 13.5
03/15/05 11:04 58.73 11.3 15
03/15/05 11:34 58.73 11.3 15
03/15/05 12:04 59.42 10.78 14.3
03/15/05 12:34 60.11 12.4 15
03/15/05 13:04 61.48 8.5 12
03/15/05 13:34 61.48 7.76 11.6
03/15/05 14:04 63.54 10.12 12
03/15/05 14:34 63.54 2.58 8.5
03/15/05 15:04 63.54 -0.08 7.5
03/15/05 15:34 65.59 6.54 9.5
03/15/05 16:04 64.91 4.36 8.8
03/15/05 16:34 64.91 6.7 9.8
03/15/05 17:04 64.22 5.5 9.5
03/15/05 17:34 62.85 8.24 11.3
03/15/05 18:04 62.85 6.64 10.5
03/15/05 18:34 62.17 5.48 10.2
03/15/05 19:04 60.8 3.56 9.8
03/15/05 19:34 58.04 7.06 12.7
03/15/05 20:04 55.28 6.84 13.9
03/15/05 20:34 55.28 0.18 10.2
03/15/05 21:04 55.97 0.72 10.2
03/15/05 21:34 55.97 2.9 11.3
03/15/05 22:04 55.28 1.58 10.9
03/15/05 22:34 53.89 1.28 11.3
03/15/05 23:04 54.58 1.04 10.9
03/15/05 23:34 53.19 2.02 12
03/16/05 00:04 53.89 -1.74 9.8
03/16/05 00:34 53.89 -2.38 9.5
03/16/05 01:04 53.19 -3.82 9.1
03/16/05 01:34 54.58 -5.94 7.8
03/16/05 02:04 55.28 -7.06 7.2
03/16/05 02:34 54.58 -6.76 7.5
03/16/05 03:04 54.58 -5.94 7.8
03/16/05 03:34 53.19 -3.82 9.1
03/16/05 04:04 50.38 -0.2 12
03/16/05 04:34 48.25 2.86 15
03/16/05 05:04 46.1 3.3 16.6
03/16/05 05:34 49.67 -2.02 11.3
03/16/05 06:04 51.08 -4.54 9.5
03/16/05 06:34 49.67 -4.98 9.8
03/16/05 07:04 46.1 0.56 14.6
03/16/05 07:34 48.96 -4.1 10.5
03/16/05 08:04 48.96 -2.02 11.6
03/16/05 08:34 51.08 -3.9 9.8
03/16/05 09:04 54.58 -5.18 8.1
03/16/05 09:34 58.73 -6.6 6.5
03/16/05 10:04 60.8 -5.1 6.5
03/16/05 10:34 62.17 -6.1 5.9
03/16/05 11:04 62.17 -5.08 6.2
03/16/05 11:34 63.54 -7.3 5.3
03/16/05 12:04 65.59 -5.84 5.3
03/16/05 12:34 66.28 -8.68 4.5
03/16/05 13:04 68.33 -7.24 4.5
03/16/05 13:34 67.65 -11.66 3.7
03/16/05 14:04 67.65 -15.16 3.1
03/16/05 14:34 69.02 -17.66 2.6
03/16/05 15:04 69.71 -13.78 3.1
03/16/05 15:34 70.39 -14.62 2.9
03/16/05 16:04 71.77 -15.84 2.6
03/16/05 16:34 72.46 -15.4 2.6
03/16/05 17:04 72.46 -19.52 2.1
03/16/05 17:34 72.46 -16.96 2.4
03/16/05 18:04 71.08 -14.16 2.9
03/16/05 18:34 69.71 -13.78 3.1
03/16/05 19:04 67.65 -11.66 3.7
03/16/05 19:34 64.91 -6.32 5.3
03/16/05 20:04 61.48 -4.6 6.5
03/16/05 20:34 59.42 -3.14 7.5
03/16/05 21:04 56.66 1.24 10.2
03/16/05 21:34 54.58 3.1 12
03/16/05 22:04 53.19 5.8 14.3
03/16/05 22:34 53.19 4.54 13.5
03/16/05 23:04 50.38 7.94 17.5
03/16/05 23:34 50.38 7.3 17
03/17/05 00:04 49.67 8.82 18.7
03/17/05 00:34 47.53 11.26 22.6
03/17/05 01:04 46.82 12.74 24.8
03/17/05 01:34 46.1 14.96 28.1
03/17/05 02:04 46.1 15.28 28.5
03/17/05 02:34 43.92 17.3 33.8
03/17/05 03:04 43.92 18.94 36.3
03/17/05 03:34 43.92 19.26 36.8
03/17/05 04:04 44.65 21.16 38.8
03/17/05 04:34 42.46 23.14 45.9
03/17/05 05:04 43.92 23.94 44.9
03/17/05 05:34 43.19 24.36 47
03/17/05 06:04 43.19 24.88 48
03/17/05 06:34 43.92 25.3 47.5
03/17/05 07:04 42.46 25.7 51.1
03/17/05 07:34 41.72 26.2 53.7
03/17/05 08:04 42.46 25.22 50.1
03/17/05 08:34 43.19 25.36 49
03/17/05 09:04 46.1 25.12 43.4
03/17/05 09:34 55.28 23.62 29
03/17/05 10:04 61.48 21.04 20.8
03/17/05 10:34 64.22 16.88 15.8
03/17/05 11:04 65.59 15.04 13.9
03/17/05 11:34 66.96 14.78 13.1
03/17/05 12:04 68.33 13.86 12
03/17/05 12:34 69.71 12.74 10.9
03/17/05 13:04 72.46 13.34 10.2
03/17/05 13:34 73.84 12.8 9.5
03/17/05 14:04 73.84 14.4 10.2
03/17/05 14:34 74.53 14.02 9.8
03/17/05 15:04 74.53 9.74 8.1
03/17/05 15:34 73.84 11.82 9.1
03/17/05 16:04 73.84 22.24 14.3
03/17/05 16:34 75.22 26.32 16.2
03/17/05 17:04 73.15 27.58 18.3
03/17/05 17:34 73.15 24.04 15.8
03/17/05 18:04 72.46 13.34 10.2
03/17/05 18:34 71.08 14.62 11.3
03/17/05 19:04 69.02 16.38 13.1
03/17/05 19:34 64.91 20.34 17.9
03/17/05 20:04 61.48 32.76 33.8
03/17/05 20:34 60.11 25.36 26.2
03/17/05 21:04 58.04 33.14 38.8
03/17/05 21:34 55.28 38.32 52.7
03/17/05 22:04 54.58 27.74 35.3
03/17/05 22:34 53.89 21.68 28.1
03/17/05 23:04 52.49 19.62 27.1
03/17/05 23:34 53.89 13.82 20
03/18/05 00:04 53.19 14.68 21.3
03/18/05 00:34 54.58 12.88 18.7
03/18/05 01:04 53.89 15.68 21.7
03/18/05 01:34 52.49 19.62 27.1
03/18/05 02:04 52.49 23.1 31.4
03/18/05 02:34 51.79 23.58 32.9
03/18/05 03:04 51.08 22.96 32.9
03/18/05 03:34 51.08 18.42 27.1
03/18/05 04:04 51.08 19.6 28.5
03/18/05 04:34 50.38 20.18 30
03/18/05 05:04 51.08 23.26 33.3
03/18/05 05:34 51.08 25.32 36.3
03/18/05 06:04 52.49 20.48 28.1
03/18/05 06:34 52.49 20.8 28.5
03/18/05 07:04 51.08 24.98 35.8
03/18/05 07:34 49.67 27.44 41.8
03/18/05 08:04 49.67 27.74 42.3
03/18/05 08:34 48.96 30.16 48
03/18/05 09:04 50.38 31.2 47.5
03/18/05 09:34 55.28 31.28 39.8
03/18/05 10:04 59.42 26.02 27.6
03/18/05 10:34 61.48 25.2 24.8
03/18/05 11:04 62.85 22.18 20.8
03/18/05 11:34 63.54 20.74 19.1
03/18/05 12:04 66.28 19.68 16.6
03/18/05 12:34 68.33 22.58 17.5
03/18/05 13:04 69.71 24.24 17.9
03/18/05 13:34 68.33 24.16 18.7
03/18/05 14:04 70.39 26.86 19.5
03/18/05 14:34 70.39 27.46 20
03/18/05 15:04 69.02 31.58 24.8
03/18/05 15:34 68.33 34.1 28.1
03/18/05 16:04 69.71 36.08 29
03/18/05 16:34 68.33 34.46 28.5
03/18/05 17:04 66.96 27.04 22.1
03/18/05 17:34 65.59 23.52 20
03/18/05 18:04 62.85 26.84 25.3
03/18/05 18:34 60.8 26.76 27.1
03/18/05 19:04 58.73 33.76 38.8
03/18/05 19:34 58.04 32.48 37.8
03/18/05 20:04 56.66 27.12 31.9
03/18/05 20:34 55.28 30.34 38.3
03/18/05 21:04 53.89 35.76 50.1
03/18/05 21:34 52.49 35.2 51.6
03/18/05 22:04 51.08 40.76 67.6
03/18/05 22:34 50.38 39.9 67.1
03/18/05 23:04 48.96 38.16 66.1
03/18/05 23:34 49.67 38.26 64.6
03/19/05 00:04 51.08 44.14 77
03/19/05 00:34 50.38 45.9 84.5
03/19/05 01:04 50.38 47.12 88.5
03/19/05 01:34 50.38 47.24 88.9
03/19/05 02:04 50.38 47.74 90.6
03/19/05 02:34 50.38 48.08 91.8
03/19/05 03:04 51.08 48.56 91
03/19/05 03:34 51.08 48.44 90.6
03/19/05 04:04 51.08 48.32 90.2
03/19/05 04:34 51.08 48.44 90.6
03/19/05 05:04 51.08 48.16 89.7
03/19/05 05:34 51.79 49.12 90.6
03/19/05 06:04 51.08 48.56 91
03/19/05 06:34 51.08 49.36 93.8
03/19/05 07:04 51.08 49.58 94.6
03/19/05 07:34 51.08 49.24 93.4
03/19/05 08:04 51.79 50.4 95
03/19/05 08:34 51.79 50.72 96.1
03/19/05 09:04 52.49 51.6 96.8
03/19/05 09:34 53.89 52.26 94.2
03/19/05 10:04 53.89 52.68 95.7
03/19/05 10:34 57.35 53.42 86.7
03/19/05 11:04 56.66 53.68 89.7
03/19/05 11:34 58.04 54.38 87.6
03/19/05 12:04 58.04 54.92 89.3
03/19/05 12:34 58.73 55.48 88.9
03/19/05 13:04 58.73 55.6 89.3
03/19/05 13:34 56.66 55.24 95
03/19/05 14:04 55.97 55.86 99.6
03/19/05 14:34 55.28 55.28 100.3
03/19/05 15:04 56.66 56.56 99.6
03/19/05 15:34 57.35 56.14 95.7
03/19/05 16:04 58.04 55.56 91.4
03/19/05 16:34 56.66 55.34 95.3
03/19/05 17:04 57.35 56.14 95.7
03/19/05 17:34 56.66 56.46 99.3
03/19/05 18:04 55.97 55.98 100.3
03/19/05 18:34 55.97 55.98 101.6
03/19/05 19:04 56.66 56.66 101.6
03/19/05 19:34 55.97 55.98 100.3
03/19/05 20:04 54.58 54 97.9
03/19/05 20:34 52.49 52.02 98.3
03/19/05 21:04 51.08 51.08 100.3
03/19/05 21:34 51.08 51.08 100.6
03/19/05 22:04 50.38 50.38 101
03/19/05 22:34 49.67 49.68 101.3
03/19/05 23:04 49.67 49.68 101.3
03/19/05 23:34 48.96 48.96 101
03/20/05 00:04 49.67 49.22 98.3
03/20/05 00:34 48.96 48.1 96.8
03/20/05 01:04 48.25 47.6 97.6
03/20/05 01:34 48.25 48.24 100.6
03/20/05 02:04 47.53 47.54 100.6
03/20/05 02:34 46.82 46.82 101
03/20/05 03:04 45.38 45.38 101.3
03/20/05 03:34 45.38 45.38 101.6
03/20/05 04:04 45.38 45.38 101.6
03/20/05 04:34 43.92 43.92 101.6
03/20/05 05:04 44.65 44.66 101.9
03/20/05 05:34 45.38 45.38 101.9
03/20/05 06:04 43.92 43.92 102.2
03/20/05 06:34 43.19 43.2 101.9
03/20/05 07:04 43.92 43.92 102.2
03/20/05 07:34 43.92 43.92 102.2
03/20/05 08:04 45.38 45.38 102.2
03/20/05 08:34 47.53 47.54 102.2
03/20/05 09:04 49.67 49.68 101.3
03/20/05 09:34 51.79 50.72 96.1
03/20/05 10:04 54.58 50.7 86.7
03/20/05 10:34 55.28 49.36 80.4
03/20/05 11:04 56.66 48.7 74.6
03/20/05 11:34 58.04 46.8 66.1
03/20/05 12:04 60.11 45.7 58.9
03/20/05 12:34 60.8 43.92 53.7
03/20/05 13:04 62.85 42.62 47.5
03/20/05 13:34 62.85 42.02 46.4
03/20/05 14:04 64.22 41.82 43.9
03/20/05 14:34 65.59 41.8 41.8
03/20/05 15:04 66.96 41.42 39.3
03/20/05 15:34 67.65 40.34 36.8
03/20/05 16:04 69.02 42.24 37.8
03/20/05 16:34 68.33 41.98 38.3
03/20/05 17:04 69.02 42.58 38.3
03/20/05 17:34 67.65 41.7 38.8
03/20/05 18:04 67.65 42.68 40.3
03/20/05 18:34 65.59 44.5 46.4
03/20/05 19:04 62.85 45.34 52.7
03/20/05 19:34 60.11 47.28 62.5
03/20/05 20:04 58.04 47.6 68.1
03/20/05 20:34 56.66 46.86 69.6
03/20/05 21:04 55.28 46.3 71.7
03/20/05 21:34 53.89 46.2 75.1
03/20/05 22:04 52.49 45.36 76.6
03/20/05 22:34 51.79 45.62 79.4
03/20/05 23:04 50.38 45.16 82.2
03/20/05 23:34 49.67 45.88 86.7
03/21/05 00:04 49.67 46.78 89.7
03/21/05 00:34 49.67 46.92 90.2
03/21/05 01:04 49.67 46.92 90.2
03/21/05 01:34 49.67 47.38 91.8
03/21/05 02:04 49.67 47.16 91
03/21/05 02:34 48.96 46.68 91.8
03/21/05 03:04 47.53 46.18 95
03/21/05 03:34 47.53 46.26 95.3
03/21/05 04:04 48.25 45.74 91
03/21/05 04:34 47.53 44.92 90.6
03/21/05 05:04 45.38 43.92 94.6
03/21/05 05:34 43.92 43.18 97.2
03/21/05 06:04 43.19 43.2 100
03/21/05 06:34 41.72 41.72 100.6
03/21/05 07:04 40.97 40.98 101
03/21/05 07:34 40.97 40.98 101
03/21/05 08:04 43.92 40.6 88
03/21/05 08:34 46.1 35.62 66.6
03/21/05 09:04 49.67 37.2 62
03/21/05 09:34 53.89 40.08 59.4
03/21/05 10:04 57.35 36.44 45.4
03/21/05 10:34 60.11 30.5 32.4
03/21/05 11:04 62.85 31 30
03/21/05 11:34 64.91 29.9 26.7
03/21/05 12:04 66.28 29.76 25.3
03/21/05 12:34 69.02 27.86 21.3
03/21/05 13:04 71.77 26.46 18.3
03/21/05 13:34 73.15 22.82 15
03/21/05 14:04 72.46 24.68 16.6
03/21/05 14:34 73.15 27.04 17.9
03/21/05 15:04 74.53 19.98 12.7
03/21/05 15:34 75.92 17.52 10.9
03/21/05 16:04 78.01 16.66 9.8
03/21/05 16:34 78.01 16.66 9.8
03/21/05 17:04 77.31 22.9 13.1
03/21/05 17:34 77.31 24.98 14.3
03/21/05 18:04 74.53 27.62 17.5
03/21/05 18:34 73.84 28.66 18.7
03/21/05 19:04 71.77 30.14 21.3
03/21/05 19:34 67.65 39.28 35.3
03/21/05 20:04 64.91 43.02 44.9
03/21/05 20:34 63.54 44.9 50.6
03/21/05 21:04 61.48 43.76 52.1
03/21/05 21:34 60.8 46.58 59.4
03/21/05 22:04 59.42 47.92 65.6
03/21/05 22:34 58.04 45.54 63
03/21/05 23:04 58.04 39.58 50.1
03/21/05 23:34 57.35 36.16 44.9
03/22/05 00:04 58.04 31.14 35.8
03/22/05 00:34 56.66 25.96 30.4
03/22/05 01:04 56.66 22.86 26.7
03/22/05 01:34 53.19 28.48 38.3
03/22/05 02:04 51.08 33.42 50.6
03/22/05 02:34 50.38 36.8 59.4
03/22/05 03:04 50.38 41.24 70.7
03/22/05 03:34 48.96 39.88 70.7
03/22/05 04:04 48.96 41.94 76.6
03/22/05 04:34 48.25 42.06 79
03/22/05 05:04 47.53 41.66 79.9
03/22/05 05:34 48.96 39.88 70.7
03/22/05 06:04 48.96 38.54 67.1
03/22/05 06:34 48.25 39.7 72.1
03/22/05 07:04 46.82 39.7 76.1
03/22/05 07:34 45.38 39.56 79.9
03/22/05 08:04 45.38 40.28 82.2
03/22/05 08:34 47.53 38.52 70.7
03/22/05 09:04 50.38 37.68 61.5
03/22/05 09:34 58.04 38.22 47.5
03/22/05 10:04 62.17 30.4 30
03/22/05 10:34 65.59 30.86 27.1
03/22/05 11:04 67.65 31.78 26.2
03/22/05 11:34 69.71 26.9 20
03/22/05 12:04 71.77 28.6 20
03/22/05 12:34 73.15 29.74 20
03/22/05 13:04 75.22 30.82 19.5
03/22/05 13:34 76.62 32.6 20
03/22/05 14:04 77.31 19.42 11.3
03/22/05 14:34 78.71 26.08 14.3
03/22/05 15:04 78.01 29.14 16.6
03/22/05 15:34 77.31 29.86 17.5
03/22/05 16:04 78.71 30.28 17
03/22/05 16:34 77.31 27.38 15.8
03/22/05 17:04 76.62 29.3 17.5
03/22/05 17:34 75.92 26.26 15.8
03/22/05 18:04 73.84 23.36 15
03/22/05 18:34 71.77 27.98 19.5
03/22/05 19:04 69.71 28.88 21.7
03/22/05 19:34 66.28 31.08 26.7
03/22/05 20:04 63.54 32.32 30.9
03/22/05 20:34 62.17 35.48 36.8
03/22/05 21:04 60.11 38.96 45.4
03/22/05 21:34 58.04 40.1 51.1
03/22/05 22:04 57.35 40.48 53.2
03/22/05 22:34 56.66 39.84 53.2
03/22/05 23:04 54.58 40.74 59.4
03/22/05 23:34 52.49 41.12 65.1
03/23/05 00:04 51.08 40.56 67.1
03/23/05 00:34 51.08 40.56 67.1
03/23/05 01:04 51.08 41.32 69.1
03/23/05 01:34 50.38 41.92 72.6
03/23/05 02:04 49.67 41.24 72.6
03/23/05 02:34 48.96 41.78 76.1
03/23/05 03:04 48.96 44.38 84.1
03/23/05 03:34 47.53 45.38 92.2
03/23/05 04:04 47.53 45.72 93.4
03/23/05 04:34 49.67 47.04 90.6
03/23/05 05:04 51.08 47.8 88.5
03/23/05 05:34 51.08 48.56 91
03/23/05 06:04 51.79 50.4 95
03/23/05 06:34 52.49 51.6 96.8
03/23/05 07:04 52.49 52.38 99.6
03/23/05 07:34 52.49 52.48 100.6
03/23/05 08:04 52.49 51.52 96.5
03/23/05 08:34 52.49 51.3 95.7
03/23/05 09:04 53.19 50.52 90.6
03/23/05 09:34 55.28 49.66 81.3
03/23/05 10:04 55.97 50.5 81.8
03/23/05 10:34 57.35 47.52 69.6
03/23/05 11:04 57.35 46.74 67.6
03/23/05 11:34 59.42 44.62 57.9
03/23/05 12:04 60.11 42.5 52.1
03/23/05 12:34 61.48 43 50.6
03/23/05 13:04 63.54 41.2 43.9
03/23/05 13:34 62.85 39.64 42.3
03/23/05 14:04 64.22 39.62 40.3
03/23/05 14:34 64.22 36.96 36.3
03/23/05 15:04 64.91 36.14 34.3
03/23/05 15:34 64.91 36.5 34.8
03/23/05 16:04 65.59 30.02 26.2
03/23/05 16:34 65.59 32.52 29
03/23/05 17:04 64.91 32.78 30
03/23/05 17:34 64.22 30.14 27.6
03/23/05 18:04 62.85 28.96 27.6
03/23/05 18:34 61.48 27.34 27.1
03/23/05 19:04 60.11 32.26 34.8
03/23/05 19:34 55.97 38.18 51.1
03/23/05 20:04 53.19 40.32 61.5
03/23/05 20:34 51.79 41.04 66.6
03/23/05 21:04 51.79 42.6 70.7
03/23/05 21:34 51.08 42.42 72.1
03/23/05 22:04 50.38 41.92 72.6
03/23/05 22:34 48.96 42.24 77.5
03/23/05 23:04 48.25 41.9 78.5
03/23/05 23:34 48.25 37.48 66.1
03/24/05 00:04 48.25 37.86 67.1
03/24/05 00:34 47.53 37.74 68.6
03/24/05 01:04 47.53 37.92 69.1
03/24/05 01:34 47.53 37.92 69.1
03/24/05 02:04 46.82 37.06 68.6
03/24/05 02:34 46.82 36.88 68.1
03/24/05 03:04 46.1 36.74 69.6
03/24/05 03:34 45.38 36.94 72.1
03/24/05 04:04 44.65 37.44 75.6
03/24/05 04:34 43.92 37.2 77
03/24/05 05:04 44.65 37.6 76.1
03/24/05 05:34 43.92 37.06 76.6
03/24/05 06:04 43.19 36.82 78
03/24/05 06:34 42.46 36.26 78.5
03/24/05 07:04 42.46 36.54 79.4
03/24/05 07:34 40.97 36.4 83.6
03/24/05 08:04 40.97 37.48 87.2
03/24/05 08:34 41.72 37.94 86.3
03/24/05 09:04 46.1 38.5 74.6
03/24/05 09:34 51.08 37.46 59.4
03/24/05 10:04 53.19 37.6 55.3
03/24/05 10:34 53.89 37.28 53.2
03/24/05 11:04 55.28 37.04 50.1
03/24/05 11:34 55.97 35.74 46.4
03/24/05 12:04 58.04 34.38 40.8
03/24/05 12:34 59.42 34.68 39.3
03/24/05 13:04 60.8 34.26 36.8
03/24/05 13:34 61.48 35.54 37.8
03/24/05 14:04 62.85 35.04 35.3
03/24/05 14:34 64.22 34.1 32.4
03/24/05 15:04 64.91 31.16 28.1
03/24/05 15:34 66.28 33.96 30
03/24/05 16:04 64.91 33.52 30.9
03/24/05 16:34 66.28 35.1 31.4
03/24/05 17:04 64.22 33.72 31.9
03/24/05 17:34 64.91 32.36 29.5
03/24/05 18:04 62.85 33.28 32.9
03/24/05 18:34 61.48 34.54 36.3
03/24/05 19:04 59.42 35.94 41.3
03/24/05 19:34 55.97 38.96 52.7
03/24/05 20:04 54.58 41.42 61
03/24/05 20:34 53.19 40.94 63
03/24/05 21:04 53.19 40.32 61.5
03/24/05 21:34 53.19 38.52 57.3
03/24/05 22:04 52.49 42.1 67.6
03/24/05 22:34 52.49 40.72 64.1
03/24/05 23:04 51.79 41.62 68.1
03/24/05 23:34 51.79 43.28 72.6
03/25/05 00:04 51.79 44 74.6
03/25/05 00:34 51.08 45.4 80.8
03/25/05 01:04 50.38 44.42 79.9
03/25/05 01:34 50.38 45.16 82.2
03/25/05 02:04 48.96 47.9 96.1
03/25/05 02:34 48.96 48.96 100
03/25/05 03:04 48.96 48.96 100.3
03/25/05 03:34 48.96 48.96 101
03/25/05 04:04 49.67 49.68 101.3
03/25/05 04:34 48.96 48.96 101.3
03/25/05 05:04 48.25 48.24 101
03/25/05 05:34 47.53 47.54 101.3
03/25/05 06:04 46.82 46.82 101.3
03/25/05 06:34 46.82 46.82 101.6
03/25/05 07:04 47.53 47.54 101.6
03/25/05 07:34 47.53 47.54 101
03/25/05 08:04 47.53 47.54 101
03/25/05 08:34 48.25 48.24 100.6
03/25/05 09:04 50.38 49.72 97.6
03/25/05 09:34 51.08 47.42 87.2
03/25/05 10:04 52.49 47.1 81.8
03/25/05 10:34 55.28 46.3 71.7
03/25/05 11:04 57.35 45.1 63.5
03/25/05 11:34 58.73 44.64 59.4
03/25/05 12:04 60.8 43.14 52.1
03/25/05 12:34 63.54 39.94 41.8
03/25/05 13:04 66.28 38.06 35.3
03/25/05 13:34 68.33 36.08 30.4
03/25/05 14:04 66.28 38.78 36.3
03/25/05 14:34 69.71 37.68 30.9
03/25/05 15:04 69.71 38.48 31.9
03/25/05 15:34 68.33 36.48 30.9
03/25/05 16:04 70.39 37.86 30.4
03/25/05 16:34 71.08 37.68 29.5
03/25/05 17:04 70.39 37.86 30.4
03/25/05 17:34 70.39 42.42 36.3
03/25/05 18:04 66.96 46.66 48
03/25/05 18:34 68.33 44.26 41.8
03/25/05 19:04 64.91 43.02 44.9
03/25/05 19:34 61.48 45.56 55.8
03/25/05 20:04 58.04 45.54 63
03/25/05 20:34 55.97 45.02 66.6
03/25/05 21:04 55.28 46.3 71.7
03/25/05 21:34 53.19 46.52 78
03/25/05 22:04 52.49 46.64 80.4
03/25/05 22:34 51.79 46.7 82.7
03/25/05 23:04 51.08 46.58 84.5
03/25/05 23:34 49.67 46.42 88.5
03/26/05 00:04 48.25 45.64 90.6
03/26/05 00:34 48.25 45.98 91.8
03/26/05 01:04 47.53 45.72 93.4
03/26/05 01:34 46.82 45.36 94.6
03/26/05 02:04 46.1 44.84 95.3
03/26/05 02:34 47.53 46.06 94.6
03/26/05 03:04 46.82 45.12 93.8
03/26/05 03:34 50.38 45.76 84.1
03/26/05 04:04 47.53 44.92 90.6
03/26/05 04:34 45.38 44.04 95
03/26/05 05:04 44.65 43.9 97.2
03/26/05 05:34 43.92 43.36 97.9
03/26/05 06:04 43.19 43 99.3
03/26/05 06:34 43.92 43.82 99.6
03/26/05 07:04 43.19 43.08 99.6
03/26/05 07:34 43.19 43.2 100
03/26/05 08:04 55.28 41.4 59.4
03/26/05 08:34 55.97 39.2 53.2
03/26/05 09:04 57.35 38.12 48.5
03/26/05 09:34 58.73 37.42 44.9
03/26/05 10:04 60.11 36.24 40.8
03/26/05 10:34 61.48 36.2 38.8
03/26/05 11:04 62.17 36.48 38.3
03/26/05 11:34 64.22 34.78 33.3
03/26/05 12:04 64.22 30.14 27.6
03/26/05 12:34 66.96 26.16 21.3
03/26/05 13:04 67.65 24.1 19.1
03/26/05 13:34 69.02 21.32 16.2
03/26/05 14:04 69.02 19.52 15
03/26/05 14:34 69.02 18.42 14.3
03/26/05 15:04 71.08 19.38 13.9
03/26/05 15:34 71.08 17.3 12.7
03/26/05 16:04 69.71 14.92 12
03/26/05 16:34 72.46 13.34 10.2
03/26/05 17:04 71.77 14.32 10.9
03/26/05 17:34 72.46 13.34 10.2
03/26/05 18:04 70.39 16.76 12.7
03/26/05 18:34 68.33 17.22 13.9
03/26/05 19:04 66.28 16.72 14.6
03/26/05 19:34 62.85 20.16 19.1
03/26/05 20:04 61.48 20.12 20
03/26/05 20:34 60.8 17.48 18.3
03/26/05 21:04 60.8 14.12 15.8
03/26/05 21:34 60.8 11.88 14.3
03/26/05 22:04 60.11 14.14 16.2
03/26/05 22:34 58.73 15.28 17.9
03/26/05 23:04 57.35 15.64 19.1
03/26/05 23:34 57.35 16.12 19.5
03/27/05 00:04 57.35 16.12 19.5
03/27/05 00:34 56.66 16.12 20
03/27/05 01:04 55.97 16 20.4
03/27/05 01:34 57.35 14.66 18.3
03/27/05 02:04 55.28 16.84 21.7
03/27/05 02:34 57.35 13 17
03/27/05 03:04 57.35 12.46 16.6
03/27/05 03:34 55.28 14.4 19.5
03/27/05 04:04 53.89 15.68 21.7
03/27/05 04:34 53.89 14.72 20.8
03/27/05 05:04 51.08 17.2 25.7
03/27/05 05:34 48.96 18.16 29
03/27/05 06:04 48.96 16.6 27.1
03/27/05 06:34 55.28 10.22 16.2
03/27/05 07:04 53.19 10.74 17.9
03/27/05 07:34 53.89 10.82 17.5
03/27/05 08:04 52.49 11.16 18.7
03/27/05 08:34 58.04 9.04 13.9
03/27/05 09:04 60.11 9.36 13.1
03/27/05 09:34 62.17 8.3 11.6
03/27/05 10:04 63.54 7.98 10.9
03/27/05 10:34 64.22 8.52 10.9
03/27/05 11:04 65.59 8.74 10.5
03/27/05 11:34 66.96 8.26 9.8
03/27/05 12:04 68.33 9.3 9.8
03/27/05 12:34 69.71 7.2 8.5
03/27/05 13:04 71.08 5.5 7.5
03/27/05 13:34 73.15 3.9 6.5
03/27/05 14:04 74.53 3.88 6.2
03/27/05 14:34 78.01 1.74 5
03/27/05 15:04 78.71 1.36 4.8
03/27/05 15:34 82.24 -0.6 3.9
03/27/05 16:04 83.67 3.44 4.5
03/27/05 16:34 82.95 1.46 4.2
03/27/05 17:04 82.95 1.46 4.2
03/27/05 17:34 82.95 -0.1 3.9
03/27/05 18:04 82.24 5.98 5.3
03/27/05 18:34 77.31 10.08 7.5
03/27/05 19:04 73.15 12.26 9.5
03/27/05 19:34 69.71 16.22 12.7
03/27/05 20:04 67.65 16.66 13.9
03/27/05 20:34 65.59 17.98 15.8
03/27/05 21:04 64.91 24.44 21.3
03/27/05 21:34 63.54 29.54 27.6
03/27/05 22:04 62.85 29.4 28.1
03/27/05 22:34 61.48 29.4 29.5
03/27/05 23:04 59.42 30.94 33.8
03/27/05 23:34 60.11 28.94 30.4
03/28/05 00:04 60.11 27.38 28.5
03/28/05 00:34 58.73 27.02 29.5
03/28/05 01:04 56.66 29.22 34.8
03/28/05 01:34 54.58 30.66 39.8
03/28/05 02:04 52.49 31.74 44.9
03/28/05 02:34 51.08 32.88 49.5
03/28/05 03:04 51.08 37.24 58.9
03/28/05 03:34 51.08 37.88 60.4
03/28/05 04:04 50.38 38.92 64.6
03/28/05 04:34 49.67 38.64 65.6
03/28/05 05:04 48.96 38.36 66.6
03/28/05 05:34 48.96 38.74 67.6
03/28/05 06:04 48.25 39.38 71.2
03/28/05 06:34 48.25 39.7 72.1
03/28/05 07:04 48.25 39.2 70.7
03/28/05 07:34 48.25 38.98 70.1
03/28/05 08:04 48.96 39.1 68.6
03/28/05 08:34 50.38 38.28 63
03/28/05 09:04 53.19 38.52 57.3
03/28/05 09:34 58.04 37.08 45.4
03/28/05 10:04 62.17 32.98 33.3
03/28/05 10:34 64.22 30.58 28.1
03/28/05 11:04 64.91 30.72 27.6
03/28/05 11:34 66.96 28.52 23.5
03/28/05 12:04 69.02 26.82 20.4
03/28/05 12:34 71.08 25.36 17.9
03/28/05 13:04 71.77 31.04 22.1
03/28/05 13:34 69.71 34.36 27.1
03/28/05 14:04 69.71 33.04 25.7
03/28/05 14:34 69.02 34.24 27.6
03/28/05 15:04 69.71 32.16 24.8
03/28/05 15:34 69.71 30.3 23
03/28/05 16:04 70.39 29.9 22.1
03/28/05 16:34 66.96 29.44 24.4
03/28/05 17:04 66.28 33.54 29.5
03/28/05 17:34 63.54 38.68 39.8
03/28/05 18:04 62.17 35.82 37.3
03/28/05 18:34 64.22 31.78 29.5
03/28/05 19:04 62.85 41.16 44.9
03/28/05 19:34 60.11 43.76 54.7
03/28/05 20:04 58.04 43.54 58.4
03/28/05 20:34 56.66 42.7 59.4
03/28/05 21:04 55.28 41.82 60.4
03/28/05 21:34 53.89 44.6 70.7
03/28/05 22:04 53.19 44.8 73.1
03/28/05 22:34 52.49 41.72 66.6
03/28/05 23:04 51.08 41.52 69.6
03/28/05 23:34 49.67 42.46 76.1
03/29/05 00:04 47.53 42.1 81.3
03/29/05 00:34 47.53 43.1 84.5
03/29/05 01:04 46.82 38.5 72.6
03/29/05 01:34 48.25 35.86 62
03/29/05 02:04 46.1 36.38 68.6
03/29/05 02:34 46.82 37.82 70.7
03/29/05 03:04 45.38 38.3 76.1
03/29/05 03:34 45.38 38.94 78
03/29/05 04:04 47.53 37.38 67.6
03/29/05 04:34 45.38 38.14 75.6
03/29/05 05:04 43.19 37.58 80.4
03/29/05 05:34 42.46 37.3 81.8
03/29/05 06:04 40.97 37.1 85.9
03/29/05 06:34 40.23 36.48 86.3
03/29/05 07:04 40.23 36.96 88
03/29/05 07:34 39.48 36.72 89.7
03/29/05 08:04 39.48 37.08 91
03/29/05 08:34 45.38 39.1 78.5
03/29/05 09:04 47.53 38.3 70.1
03/29/05 09:34 50.38 37.68 61.5
03/29/05 10:04 52.49 36.96 55.3
03/29/05 10:34 55.97 35.18 45.4
03/29/05 11:04 59.42 30.94 33.8
03/29/05 11:34 63.54 29.1 27.1
03/29/05 12:04 66.96 21.48 17.5
03/29/05 12:34 69.02 21.9 16.6
03/29/05 13:04 71.77 19.24 13.5
03/29/05 13:34 71.77 22.94 15.8
03/29/05 14:04 71.77 22.94 15.8
03/29/05 14:34 73.84 23.36 15
03/29/05 15:04 72.46 27.54 18.7
03/29/05 15:34 72.46 28.04 19.1
03/29/05 16:04 73.15 31.28 21.3
03/29/05 16:34 72.46 34.48 24.8
03/29/05 17:04 71.08 37.68 29.5
03/29/05 17:34 70.39 36.66 29
03/29/05 18:04 69.02 35.48 29
03/29/05 18:34 66.28 36.58 33.3
03/29/05 19:04 63.54 37.7 38.3
03/29/05 19:34 60.8 39.58 45.4
03/29/05 20:04 58.04 40.88 52.7
03/29/05 20:34 55.97 42.48 60.4
03/29/05 21:04 55.28 43.98 65.6
03/29/05 21:34 53.19 44.8 73.1
03/29/05 22:04 51.79 45.5 79
03/29/05 22:34 51.79 45.32 78.5
03/29/05 23:04 51.08 44.48 78
03/29/05 23:34 51.08 45.1 79.9
03/30/05 00:04 49.67 45.2 84.5
03/30/05 00:34 48.96 44.66 85
03/30/05 01:04 49.67 44.48 82.2
03/30/05 01:34 48.25 43.8 84.5
03/30/05 02:04 46.82 42.82 85.9
03/30/05 02:34 45.38 41.26 85.4
03/30/05 03:04 47.53 39.72 74.1
03/30/05 03:34 47.53 40.4 76.1
03/30/05 04:04 47.53 38.3 70.1
03/30/05 04:34 46.82 38 71.2
03/30/05 05:04 46.82 37.24 69.1
03/30/05 05:34 44.65 37.44 75.6
03/30/05 06:04 43.92 37.2 77
03/30/05 06:34 44.65 39.28 81.3
03/30/05 07:04 43.92 40.86 88.9
03/30/05 07:34 43.19 41.08 92.2
03/30/05 08:04 43.19 40.52 90.2
03/30/05 08:34 46.82 40.96 79.9
03/30/05 09:04 49.67 41.06 72.1
03/30/05 09:34 53.19 39.64 59.9
03/30/05 10:04 55.28 37.78 51.6
03/30/05 10:34 61.48 28.22 28.1
03/30/05 11:04 62.17 37.46 39.8
03/30/05 11:34 62.85 33.58 33.3
03/30/05 12:04 64.91 33.1 30.4
03/30/05 12:34 66.28 30.6 26.2
03/30/05 13:04 66.96 27.04 22.1
03/30/05 13:34 69.02 24.2 18.3
03/30/05 14:04 69.71 23.02 17
03/30/05 14:34 69.02 25.24 19.1
03/30/05 15:04 70.39 24.26 17.5
03/30/05 15:34 70.39 25.32 18.3
03/30/05 16:04 72.46 25.94 17.5
03/30/05 16:34 72.46 25.24 17
03/30/05 17:04 72.46 23.5 15.8
03/30/05 17:34 71.77 21.72 15
03/30/05 18:04 69.71 19.44 14.6
03/30/05 18:34 68.33 19.58 15.4
03/30/05 19:04 67.65 19.04 15.4
03/30/05 19:34 64.22 23.3 20.8
03/30/05 20:04 62.17 26.64 25.7
03/30/05 20:34 61.48 26.06 25.7
03/30/05 21:04 61.48 23.92 23.5
03/30/05 21:34 60.8 21.88 22.1
03/30/05 22:04 60.11 19.44 20.4
03/30/05 22:34 58.73 19.3 21.3
03/30/05 23:04 58.04 16.68 19.5
03/30/05 23:34 57.35 17.16 20.4
03/31/05 00:04 58.04 16.68 19.5
03/31/05 00:34 58.73 16.3 18.7
03/31/05 01:04 58.04 15.72 18.7
03/31/05 01:34 56.66 16.58 20.4
03/31/05 02:04 58.73 18.74 20.8
03/31/05 02:34 60.11 15.24 17
03/31/05 03:04 60.11 16.42 17.9
03/31/05 03:34 60.8 16.46 17.5
03/31/05 04:04 59.42 17.34 19.1
03/31/05 04:34 59.42 14.68 17
03/31/05 05:04 59.42 9.5 13.5
03/31/05 05:34 59.42 8.82 13.1
03/31/05 06:04 59.42 7.62 12.4
03/31/05 06:34 59.42 6.9 12
03/31/05 07:04 58.73 6.36 12
03/31/05 07:34 58.73 7.6 12.7
03/31/05 08:04 58.73 8.28 13.1
03/31/05 08:34 59.42 8.82 13.1
03/31/05 09:04 60.8 7.96 12
03/31/05 09:34 61.48 7.18 11.3
03/31/05 10:04 62.17 5.48 10.2
03/31/05 10:34 62.85 7.46 10.9
03/31/05 11:04 63.54 12.08 13.1
03/31/05 11:34 63.54 6.52 10.2
03/31/05 12:04 64.22 10.64 12
03/31/05 12:34 64.91 9.04 10.9
03/31/05 13:04 63.54 10.12 12
03/31/05 13:34 64.91 9.04 10.9
03/31/05 14:04 65.59 4.12 8.5
03/31/05 14:34 65.59 8.1 10.2
03/31/05 15:04 66.28 10.9 11.3
03/31/05 15:34 66.28 15.58 13.9
03/31/05 16:04 64.91 11.18 12
03/31/05 16:34 66.28 9.26 10.5
03/31/05 17:04 66.28 0.16 6.9
03/31/05 17:34 66.28 -4.2 5.6
03/31/05 18:04 65.59 -2.58 6.2
03/31/05 18:34 64.91 -3.08 6.2
03/31/05 19:04 63.54 1.54 8.1
03/31/05 19:34 61.48 5.58 10.5
03/31/05 20:04 60.8 5.86 10.9
03/31/05 20:34 60.8 5.86 10.9
03/31/05 21:04 60.8 6.66 11.3
03/31/05 21:34 60.8 5.86 10.9
03/31/05 22:04 60.8 4.42 10.2
03/31/05 22:34 60.8 3.56 9.8
03/31/05 23:04 60.8 3.56 9.8
03/31/05 23:34 60.8 2.88 9.5